createdAt,value
2018-04-30T00:02:30.633Z,73.90
2018-04-30T00:05:53.487Z,74.20
2018-04-30T00:09:16.315Z,74.50
2018-04-30T00:12:39.185Z,73.20
2018-04-30T00:16:02.097Z,72.90
2018-04-30T00:19:24.937Z,73.30
2018-04-30T00:22:47.785Z,73.40
2018-04-30T00:26:10.612Z,73.50
2018-04-30T00:29:33.483Z,73.50
2018-04-30T00:32:56.333Z,73.30
2018-04-30T00:36:19.179Z,72.30
2018-04-30T00:39:42.026Z,73.40
2018-04-30T00:43:04.876Z,74.20
2018-04-30T00:46:27.794Z,76.70
2018-04-30T00:49:50.639Z,77.00
2018-04-30T00:53:13.491Z,78.30
2018-04-30T00:56:36.348Z,74.10
2018-04-30T00:59:59.188Z,76.80
2018-04-30T01:03:22.105Z,76.40
2018-04-30T01:06:45.018Z,69.70
2018-04-30T01:10:07.873Z,69.00
2018-04-30T01:13:30.738Z,69.30
2018-04-30T01:16:53.572Z,69.80
2018-04-30T01:20:17.446Z,71.80
2018-04-30T01:23:40.286Z,72.90
2018-04-30T01:27:03.151Z,74.20
2018-04-30T01:30:25.992Z,76.40
2018-04-30T01:33:48.838Z,78.10
2018-04-30T01:37:11.766Z,80.60
2018-04-30T01:40:34.605Z,81.20
2018-04-30T01:43:57.463Z,83.30
2018-04-30T01:47:20.292Z,84.00
2018-04-30T01:50:43.133Z,86.00
2018-04-30T01:54:06.001Z,85.80
2018-04-30T01:57:28.844Z,86.90
2018-04-30T02:00:51.693Z,86.20
2018-04-30T02:04:14.545Z,85.30
2018-04-30T02:07:37.397Z,84.30
2018-04-30T02:11:00.249Z,82.80
2018-04-30T02:14:23.171Z,83.40
2018-04-30T02:17:47.039Z,84.80
2018-04-30T02:21:09.962Z,85.10
2018-04-30T02:24:32.875Z,86.50
2018-04-30T02:27:55.768Z,86.70
2018-04-30T02:31:18.629Z,87.60
2018-04-30T02:34:41.471Z,88.20
2018-04-30T02:38:04.324Z,86.30
2018-04-30T02:41:27.167Z,84.90
2018-04-30T02:44:50.043Z,85.60
2018-04-30T02:48:12.936Z,82.80
2018-04-30T02:51:35.806Z,85.40
2018-04-30T02:54:58.644Z,81.90
2018-04-30T02:58:21.572Z,82.20
2018-04-30T03:01:44.476Z,85.50
2018-04-30T03:05:07.330Z,85.90
2018-04-30T03:08:30.248Z,85.30
2018-04-30T03:11:53.112Z,80.90
2018-04-30T03:15:16.022Z,84.40
2018-04-30T03:18:38.864Z,84.20
2018-04-30T03:22:01.741Z,82.70
2018-04-30T03:25:25.408Z,83.20
2018-04-30T03:28:48.288Z,82.30
2018-04-30T03:32:11.138Z,83.00
2018-04-30T03:35:33.982Z,81.60
2018-04-30T03:38:56.841Z,80.30
2018-04-30T03:42:19.712Z,82.10
2018-04-30T03:45:43.358Z,80.50
2018-04-30T03:49:06.972Z,80.40
2018-04-30T03:52:29.850Z,80.10
2018-04-30T03:55:53.492Z,82.00
2018-04-30T03:59:17.164Z,81.00
2018-04-30T04:06:48.941Z,80.00
2018-04-30T04:10:12.616Z,82.80
2018-04-30T04:13:35.484Z,82.70
2018-04-30T04:16:58.398Z,84.10
2018-04-30T04:20:21.268Z,80.80
2018-04-30T04:23:44.180Z,79.30
2018-04-30T04:27:07.104Z,83.00
2018-04-30T04:30:29.940Z,76.90
2018-04-30T04:33:53.798Z,80.90
2018-04-30T04:37:16.735Z,78.90
2018-04-30T04:40:39.680Z,75.00
2018-04-30T04:44:03.297Z,73.00
2018-04-30T04:47:26.247Z,73.00
2018-04-30T04:50:49.080Z,74.10
2018-04-30T04:54:13.440Z,71.30
2018-04-30T04:57:36.297Z,71.30
2018-04-30T05:00:59.138Z,74.40
2018-04-30T05:04:22.085Z,72.10
2018-04-30T05:07:45.694Z,75.80
2018-04-30T05:11:08.558Z,75.70
2018-04-30T05:14:31.464Z,74.70
2018-04-30T05:17:54.302Z,74.80
2018-04-30T05:21:17.173Z,71.50
2018-04-30T05:24:40.010Z,73.70
2018-04-30T05:28:02.868Z,74.10
2018-04-30T05:31:25.802Z,74.30
2018-04-30T05:34:49.456Z,75.00
2018-04-30T05:38:13.090Z,74.90
2018-04-30T05:41:36.457Z,74.80
2018-04-30T05:45:00.184Z,73.10
2018-04-30T05:48:23.115Z,73.10
2018-04-30T05:51:46.075Z,75.20
2018-04-30T05:55:08.981Z,75.30
2018-04-30T05:58:31.868Z,73.60
2018-04-30T06:01:54.850Z,75.30
2018-04-30T06:05:17.765Z,76.50
2018-04-30T06:08:41.683Z,73.90
2018-04-30T06:12:04.997Z,74.70
2018-04-30T06:15:28.568Z,73.70
2018-04-30T06:18:52.979Z,74.40
2018-04-30T06:22:16.745Z,74.30
2018-04-30T06:25:40.460Z,70.90
2018-04-30T06:29:04.138Z,72.40
2018-04-30T06:32:27.020Z,72.30
2018-04-30T06:35:49.930Z,71.70
2018-04-30T06:39:12.808Z,72.80
2018-04-30T06:42:36.433Z,70.20
2018-04-30T06:45:59.368Z,70.20
2018-04-30T06:49:25.058Z,69.30
2018-04-30T06:52:49.833Z,68.30
2018-04-30T06:56:12.746Z,68.30
2018-04-30T06:59:35.652Z,71.10
2018-04-30T07:02:58.573Z,68.30
2018-04-30T07:06:21.502Z,68.90
2018-04-30T07:09:44.436Z,67.30
2018-04-30T07:13:07.358Z,68.60
2018-04-30T07:16:30.236Z,67.50
2018-04-30T07:19:53.886Z,69.60
2018-04-30T07:23:17.540Z,69.40
2018-04-30T07:26:40.517Z,69.40
2018-04-30T07:30:04.161Z,69.30
2018-04-30T07:33:27.164Z,68.90
2018-04-30T07:36:50.807Z,69.00
2018-04-30T07:40:14.452Z,66.90
2018-04-30T07:43:37.428Z,66.90
2018-04-30T07:47:00.298Z,67.20
2018-04-30T07:50:23.925Z,66.40
2018-04-30T07:53:46.802Z,66.30
2018-04-30T07:57:10.574Z,64.10
2018-04-30T08:00:33.423Z,64.00
2018-04-30T08:03:56.344Z,63.30
2018-04-30T08:07:19.272Z,61.90
2018-04-30T08:10:43.678Z,62.10
2018-04-30T08:14:06.570Z,62.10
2018-04-30T08:17:30.195Z,61.90
2018-04-30T08:20:53.061Z,61.90
2018-04-30T08:24:15.970Z,61.60
2018-04-30T08:27:38.816Z,62.20
2018-04-30T08:31:01.693Z,61.90
2018-04-30T08:34:25.347Z,62.30
2018-04-30T08:37:48.949Z,62.20
2018-04-30T08:41:11.801Z,62.20
2018-04-30T08:44:34.669Z,62.20
2018-04-30T08:47:57.604Z,60.00
2018-04-30T08:51:21.306Z,60.10
2018-04-30T08:54:45.257Z,60.10
2018-04-30T08:58:08.990Z,59.30
2018-04-30T09:01:31.917Z,59.30
2018-04-30T09:04:55.555Z,59.00
2018-04-30T09:08:19.193Z,58.10
2018-04-30T09:11:43.887Z,59.00
2018-04-30T09:15:07.684Z,57.90
2018-04-30T09:18:30.706Z,57.90
2018-04-30T09:21:53.709Z,57.80
2018-04-30T09:25:16.762Z,56.90
2018-04-30T09:28:39.720Z,56.30
2018-04-30T09:32:02.659Z,56.90
2018-04-30T09:35:25.564Z,56.60
2018-04-30T09:38:49.558Z,56.50
2018-04-30T09:42:14.448Z,55.50
2018-04-30T09:45:38.362Z,55.00
2018-04-30T09:49:01.271Z,55.00
2018-04-30T09:52:24.285Z,55.00
2018-04-30T09:55:47.938Z,55.00
2018-04-30T09:59:11.686Z,55.40
2018-04-30T10:02:34.547Z,55.30
2018-04-30T10:05:57.501Z,54.90
2018-04-30T10:09:21.189Z,53.70
2018-04-30T10:12:44.096Z,53.60
2018-04-30T10:16:07.815Z,52.30
2018-04-30T10:19:30.829Z,52.40
2018-04-30T10:22:53.706Z,53.00
2018-04-30T10:26:17.412Z,52.90
2018-04-30T10:29:40.403Z,52.90
2018-04-30T10:33:03.246Z,52.90
2018-04-30T10:40:42.327Z,51.90
2018-04-30T10:44:06.466Z,50.60
2018-04-30T10:47:29.370Z,49.70
2018-04-30T10:50:52.365Z,49.50
2018-04-30T10:54:15.270Z,47.60
2018-04-30T10:57:39.345Z,48.10
2018-04-30T11:01:02.280Z,49.50
2018-04-30T11:04:25.279Z,49.20
2018-04-30T11:07:48.202Z,48.40
2018-04-30T11:11:11.911Z,46.00
2018-04-30T11:14:45.579Z,45.00
2018-04-30T11:18:09.340Z,44.20
2018-04-30T11:21:33.228Z,44.20
2018-04-30T11:24:56.921Z,46.00
2018-04-30T11:28:19.921Z,46.00
2018-04-30T11:31:43.657Z,47.00
2018-04-30T11:35:08.204Z,46.90
2018-04-30T11:38:31.201Z,46.70
2018-04-30T11:41:54.151Z,46.90
2018-04-30T11:45:17.113Z,48.50
2018-04-30T11:48:40.988Z,46.50
2018-04-30T11:52:05.095Z,48.80
2018-04-30T11:55:28.924Z,54.80
2018-04-30T11:58:51.795Z,54.50
2018-04-30T12:02:15.589Z,55.90
2018-04-30T12:05:40.251Z,59.80
2018-04-30T12:09:03.119Z,59.80
2018-04-30T12:12:27.761Z,58.20
2018-04-30T12:15:50.667Z,58.20
2018-04-30T12:19:13.584Z,64.50
2018-04-30T12:22:36.484Z,65.50
2018-04-30T12:26:00.169Z,69.40
2018-04-30T12:29:23.068Z,69.30
2018-04-30T12:32:46.843Z,64.30
2018-04-30T12:36:10.558Z,68.20
2018-04-30T12:39:33.407Z,68.00
2018-04-30T12:42:56.336Z,71.10
2018-04-30T12:46:19.981Z,69.30
2018-04-30T12:49:44.359Z,67.30
2018-04-30T12:53:07.419Z,67.30
2018-04-30T12:56:31.047Z,64.00
2018-04-30T12:59:53.925Z,63.80
2018-04-30T13:03:18.571Z,61.20
2018-04-30T13:06:41.439Z,61.10
2018-04-30T13:10:04.329Z,64.40
2018-04-30T13:13:27.197Z,64.10
2018-04-30T13:16:51.582Z,65.90
2018-04-30T13:20:16.386Z,60.20
2018-04-30T13:23:39.348Z,60.10
2018-04-30T13:27:06.080Z,58.20
2018-04-30T13:30:29.703Z,57.60
2018-04-30T13:33:52.628Z,57.50
2018-04-30T13:37:15.517Z,58.30
2018-04-30T13:40:38.372Z,58.30
2018-04-30T13:44:01.290Z,59.10
2018-04-30T13:47:24.434Z,51.70
2018-04-30T13:50:47.425Z,51.00
2018-04-30T13:54:10.390Z,48.80
2018-04-30T13:57:33.767Z,51.10
2018-04-30T14:00:57.439Z,52.50
2018-04-30T14:04:20.371Z,52.50
2018-04-30T14:07:43.257Z,53.50
2018-04-30T14:11:07.047Z,51.00
2018-04-30T14:14:30.654Z,52.00
2018-04-30T14:17:53.487Z,51.90
2018-04-30T14:21:16.318Z,51.70
2018-04-30T14:24:39.968Z,52.00
2018-04-30T14:28:03.714Z,51.60
2018-04-30T14:31:26.574Z,51.60
2018-04-30T14:34:49.441Z,53.40
2018-04-30T14:38:13.057Z,48.50
2018-04-30T14:41:35.890Z,48.50
2018-04-30T14:44:58.833Z,50.00
2018-04-30T14:48:21.704Z,49.60
2018-04-30T14:51:44.551Z,48.80
2018-04-30T14:55:07.382Z,49.60
2018-04-30T14:58:30.199Z,47.50
2018-04-30T15:01:53.056Z,46.30
2018-04-30T15:05:15.957Z,46.10
2018-04-30T15:08:38.758Z,45.80
2018-04-30T15:12:01.584Z,45.00
2018-04-30T15:15:25.198Z,46.00
2018-04-30T15:18:48.052Z,45.90
2018-04-30T15:22:10.900Z,46.00
2018-04-30T15:25:33.789Z,46.00
2018-04-30T15:28:56.620Z,45.40
2018-04-30T15:32:20.234Z,46.00
2018-04-30T15:35:43.246Z,46.00
2018-04-30T15:39:06.846Z,45.00
2018-04-30T15:42:30.463Z,44.90
2018-04-30T15:45:54.527Z,44.30
2018-04-30T15:49:18.580Z,43.90
2018-04-30T15:52:42.213Z,45.50
2018-04-30T15:56:05.114Z,45.40
2018-04-30T17:22:22.041Z,43.90
2018-04-30T17:25:45.467Z,47.60
2018-04-30T17:29:08.311Z,48.10
2018-04-30T17:32:31.226Z,47.60
2018-04-30T17:35:54.380Z,46.80
2018-04-30T17:39:20.051Z,46.90
2018-04-30T17:42:42.902Z,45.40
2018-04-30T17:46:06.745Z,45.10
2018-04-30T17:49:32.272Z,44.30
2018-04-30T17:52:56.773Z,44.00
2018-04-30T17:56:19.810Z,43.90
2018-04-30T17:59:42.750Z,44.20
2018-04-30T18:03:05.590Z,45.20
2018-04-30T18:06:28.504Z,44.10
2018-04-30T18:09:51.384Z,44.20
2018-04-30T18:13:15.095Z,42.60
2018-04-30T18:16:38.043Z,42.60
2018-04-30T18:20:00.927Z,43.90
2018-04-30T19:46:17.450Z,79.70
2018-04-30T19:49:40.341Z,79.60
2018-04-30T19:53:04.852Z,80.00
2018-04-30T19:56:27.799Z,80.20
2018-04-30T20:29:42.879Z,82.10
2018-04-30T20:33:05.813Z,82.50
2018-04-30T20:36:29.453Z,83.70
2018-04-30T20:39:52.480Z,83.60
2018-04-30T20:43:15.384Z,84.30
2018-04-30T20:46:39.075Z,87.70
2018-04-30T20:50:01.933Z,87.60
2018-04-30T20:53:24.872Z,88.00
2018-04-30T20:56:48.510Z,88.00
2018-04-30T21:00:12.166Z,87.10
2018-04-30T21:03:35.875Z,86.50
2018-04-30T21:06:58.915Z,86.50
2018-04-30T21:10:21.796Z,86.20
2018-04-30T21:13:45.498Z,90.30
2018-04-30T21:17:08.379Z,90.30
2018-04-30T21:20:31.247Z,90.90
2018-04-30T21:23:54.177Z,91.00
2018-04-30T21:27:17.038Z,90.90
2018-04-30T21:30:39.881Z,91.10
2018-04-30T21:34:02.803Z,90.40
2018-04-30T21:37:25.653Z,90.30
2018-04-30T21:40:48.579Z,90.70
2018-04-30T21:44:11.480Z,90.50
2018-04-30T21:47:34.514Z,89.60
2018-04-30T21:50:57.415Z,90.00
2018-04-30T21:54:20.322Z,89.20
2018-04-30T23:20:36.366Z,81.10
2018-04-30T23:23:59.277Z,81.00
2018-04-30T23:27:22.142Z,82.30
2018-04-30T23:30:45.002Z,80.00
2018-04-30T23:34:08.635Z,81.70
2018-04-30T23:37:31.543Z,81.60
2018-04-30T23:40:54.403Z,83.90
2018-04-30T23:44:17.303Z,83.60
2018-04-30T23:47:40.157Z,82.00
2018-04-30T23:51:03.013Z,81.10
2018-04-30T23:54:25.858Z,79.60
2018-04-30T23:57:48.838Z,76.80
